createdAt,value
2022-12-05T00:04:15.584Z,465.05
2022-12-05T00:09:20.368Z,186.55
2022-12-05T00:14:23.876Z,115.55
2022-12-05T00:19:27.234Z,103.72
2022-12-05T00:24:31.931Z,780.97
2022-12-05T00:29:35.294Z,111.72
2022-12-05T00:34:38.881Z,170.30
2022-12-05T00:39:43.813Z,374.77
2022-12-05T00:44:47.241Z,253.68
2022-12-05T00:49:50.662Z,89.32
2022-12-05T00:54:55.372Z,297.52
2022-12-05T00:59:58.979Z,154.07
2022-12-05T01:05:02.661Z,103.18
2022-12-05T01:10:09.131Z,74.75
2022-12-05T01:15:13.516Z,79.30
2022-12-05T01:20:17.008Z,128.48
2022-12-05T01:25:21.702Z,69.38
2022-12-05T01:30:25.082Z,82.25
2022-12-05T01:35:28.476Z,61.15
2022-12-05T01:40:36.030Z,133.27
2022-12-05T01:45:42.184Z,251.00
2022-12-05T01:50:46.400Z,85.38
2022-12-05T01:55:52.299Z,316.17
2022-12-05T02:00:55.694Z,65.78
2022-12-05T02:06:00.015Z,137.65
2022-12-05T02:11:08.232Z,134.98
2022-12-05T02:16:20.691Z,87.67
2022-12-05T02:21:46.103Z,63.10
2022-12-05T02:27:01.615Z,124.90
2022-12-05T02:32:13.831Z,65.07
2022-12-05T02:37:23.959Z,119.93
2022-12-05T02:42:34.091Z,71.05
2022-12-05T02:47:43.239Z,61.67
2022-12-05T02:52:50.291Z,60.92
2022-12-05T02:57:56.882Z,61.90
2022-12-05T03:03:56.338Z,68.25
2022-12-05T03:09:05.190Z,72.65
2022-12-05T03:14:16.563Z,67.93
2022-12-05T03:19:25.855Z,59.25
2022-12-05T03:24:32.918Z,63.28
2022-12-05T03:29:40.141Z,46.35
2022-12-05T03:34:50.456Z,67.78
2022-12-05T03:40:12.219Z,58.10
2022-12-05T03:45:21.441Z,53.45
2022-12-05T03:50:28.040Z,56.42
2022-12-05T03:55:37.048Z,51.45
2022-12-05T04:00:44.396Z,46.40
2022-12-05T04:05:52.324Z,48.08
2022-12-05T04:11:01.797Z,54.25
2022-12-05T04:16:27.611Z,50.72
2022-12-05T04:21:39.244Z,50.65
2022-12-05T04:26:49.511Z,50.83
2022-12-05T04:31:59.239Z,54.28
2022-12-05T04:37:07.487Z,53.88
2022-12-05T04:42:17.355Z,49.90
2022-12-05T04:47:25.727Z,54.40
2022-12-05T04:52:30.247Z,46.97
2022-12-05T04:57:41.870Z,47.30
2022-12-05T05:02:50.503Z,44.03
2022-12-05T05:07:56.057Z,40.30
2022-12-05T05:13:00.828Z,62.75
2022-12-05T05:18:04.167Z,43.28
2022-12-05T05:23:07.681Z,51.40
2022-12-05T05:28:12.412Z,54.85
2022-12-05T05:33:16.289Z,73.35
2022-12-05T05:38:19.622Z,63.25
2022-12-05T05:43:24.343Z,68.38
2022-12-05T05:48:27.740Z,67.28
2022-12-05T05:53:31.479Z,73.35
2022-12-05T05:58:39.523Z,87.85
2022-12-05T06:03:43.522Z,70.80
2022-12-05T06:08:47.800Z,74.30
2022-12-05T06:13:52.748Z,96.68
2022-12-05T06:18:56.094Z,72.00
2022-12-05T06:23:59.848Z,74.55
2022-12-05T06:29:04.592Z,83.20
2022-12-05T06:34:08.112Z,105.30
2022-12-05T06:39:11.480Z,85.22
2022-12-05T06:44:16.359Z,112.50
2022-12-05T06:49:19.799Z,101.63
2022-12-05T06:54:23.171Z,76.93
2022-12-05T06:59:27.872Z,77.47
2022-12-05T07:04:31.270Z,87.18
2022-12-05T07:09:53.923Z,73.40
2022-12-05T07:14:58.678Z,85.47
2022-12-05T07:20:02.090Z,71.07
2022-12-05T07:25:06.331Z,74.88
2022-12-05T07:30:11.895Z,89.35
2022-12-05T07:35:15.318Z,70.72
2022-12-05T07:40:19.032Z,77.10
2022-12-05T07:45:23.788Z,97.55
2022-12-05T07:50:27.142Z,81.90
2022-12-05T07:55:30.611Z,83.57
2022-12-05T08:00:35.367Z,93.95
2022-12-05T08:05:38.778Z,234.45
2022-12-05T08:10:42.202Z,89.53
2022-12-05T08:15:46.962Z,91.03
2022-12-05T08:20:50.501Z,192.35
2022-12-05T08:25:54.081Z,256.63
2022-12-05T08:31:07.238Z,90.93
2022-12-05T08:36:13.037Z,115.82
2022-12-05T08:41:18.785Z,213.63
2022-12-05T08:46:23.618Z,92.32
2022-12-05T08:51:27.206Z,60.42
2022-12-05T08:56:30.778Z,67.18
2022-12-05T09:01:38.862Z,63.72
2022-12-05T09:06:43.583Z,53.10
2022-12-05T09:11:49.271Z,56.78
2022-12-05T09:16:54.720Z,107.25
2022-12-05T09:21:58.446Z,53.65
2022-12-05T09:27:01.879Z,57.47
2022-12-05T09:32:08.237Z,64.55
2022-12-05T09:37:37.691Z,65.35
2022-12-05T09:42:44.970Z,52.17
2022-12-05T09:47:56.651Z,48.60
2022-12-05T09:53:12.338Z,50.40
2022-12-05T09:58:27.014Z,41.50
2022-12-05T10:03:39.365Z,43.80
2022-12-05T10:09:02.135Z,45.50
2022-12-05T10:14:12.837Z,44.13
2022-12-05T10:19:23.497Z,48.38
2022-12-05T10:24:33.317Z,43.50
2022-12-05T10:29:43.990Z,37.58
2022-12-05T10:34:52.081Z,100.65
2022-12-05T10:40:08.831Z,48.17
2022-12-05T10:45:18.312Z,381.30
2022-12-05T10:50:28.552Z,44.25
2022-12-05T10:55:37.755Z,48.75
2022-12-05T11:00:46.500Z,46.28
2022-12-05T11:05:52.719Z,46.42
2022-12-05T11:11:07.233Z,41.15
2022-12-05T11:16:25.650Z,52.00
2022-12-05T11:21:43.398Z,43.75
2022-12-05T11:26:46.823Z,57.22
2022-12-05T11:31:53.034Z,57.63
2022-12-05T11:37:01.287Z,46.47
2022-12-05T11:42:20.548Z,64.18
2022-12-05T11:47:48.676Z,256.33
2022-12-05T11:53:05.744Z,149.07
2022-12-05T11:58:30.005Z,55.00
2022-12-05T12:03:54.853Z,53.90
2022-12-05T12:09:17.525Z,54.60
2022-12-05T12:14:29.124Z,50.08
2022-12-05T12:19:48.110Z,59.70
2022-12-05T12:25:14.886Z,53.20
2022-12-05T12:30:22.469Z,60.70
2022-12-05T12:35:45.901Z,121.60
2022-12-05T12:40:54.291Z,85.10
2022-12-05T12:46:11.497Z,65.28
2022-12-05T12:51:15.635Z,65.20
2022-12-05T12:56:30.757Z,61.28
2022-12-05T13:01:42.068Z,96.30
2022-12-05T13:06:50.444Z,53.10
2022-12-05T13:11:57.135Z,71.05
2022-12-05T13:17:02.434Z,55.72
2022-12-05T13:22:07.609Z,61.92
2022-12-05T13:27:17.751Z,66.45
2022-12-05T13:32:33.401Z,59.05
2022-12-05T13:37:55.837Z,73.25
2022-12-05T13:43:05.930Z,61.78
2022-12-05T13:48:21.263Z,72.50
2022-12-05T13:53:30.545Z,70.53
2022-12-05T13:58:44.787Z,77.05
2022-12-05T14:04:02.237Z,77.38
2022-12-05T14:09:06.331Z,73.45
2022-12-05T14:14:11.668Z,83.47
2022-12-05T14:19:46.109Z,84.25
2022-12-05T14:24:58.317Z,83.05
2022-12-05T14:30:21.598Z,89.63
2022-12-05T14:35:30.750Z,98.45
2022-12-05T14:45:48.004Z,87.57
2022-12-05T14:50:53.241Z,162.85
2022-12-05T14:56:04.579Z,204.18
2022-12-05T15:01:16.207Z,146.30
2022-12-05T15:06:19.900Z,159.68
2022-12-05T15:11:29.273Z,137.13
2022-12-05T15:16:38.104Z,124.20
2022-12-05T15:21:46.723Z,144.07
2022-12-05T15:26:53.686Z,225.98
2022-12-05T15:32:02.775Z,130.80
2022-12-05T15:37:13.402Z,119.97
2022-12-05T15:42:17.721Z,87.82
2022-12-05T15:47:25.302Z,100.03
2022-12-05T15:52:38.999Z,107.60
2022-12-05T15:57:47.476Z,99.38
2022-12-05T16:02:56.950Z,96.03
2022-12-05T16:13:08.039Z,115.40
2022-12-05T16:18:26.657Z,117.18
2022-12-05T16:23:33.058Z,131.13
2022-12-05T16:28:36.680Z,106.65
2022-12-05T16:33:43.600Z,109.95
2022-12-05T16:38:47.784Z,106.80
2022-12-05T16:43:53.040Z,89.20
2022-12-05T16:49:23.691Z,79.68
2022-12-05T16:54:27.285Z,86.03
2022-12-05T16:59:34.130Z,113.13
2022-12-05T17:04:39.057Z,91.93
2022-12-05T17:09:42.548Z,94.32
2022-12-05T17:14:47.239Z,101.13
2022-12-05T17:19:51.981Z,116.90
2022-12-05T17:24:58.946Z,121.63
2022-12-05T17:30:02.807Z,162.25
2022-12-05T17:35:14.883Z,125.72
2022-12-05T17:40:18.354Z,245.90
2022-12-05T17:45:22.040Z,267.55
2022-12-05T17:50:27.450Z,287.98
2022-12-05T17:55:31.006Z,285.67
2022-12-05T18:00:34.767Z,312.67
2022-12-05T18:05:42.592Z,313.98
2022-12-05T18:10:47.878Z,307.80
2022-12-05T18:15:58.010Z,261.63
2022-12-05T18:21:07.573Z,288.08
2022-12-05T18:31:16.887Z,241.93
2022-12-05T18:36:25.580Z,245.32
2022-12-05T18:41:30.395Z,249.77
2022-12-05T18:46:34.025Z,262.02
2022-12-05T18:51:39.604Z,250.98
2022-12-05T18:56:45.857Z,270.70
2022-12-05T19:01:50.493Z,282.48
2022-12-05T19:06:57.760Z,275.35
2022-12-05T19:12:01.735Z,272.77
2022-12-05T19:17:05.569Z,276.70
2022-12-05T19:22:10.385Z,253.15
2022-12-05T19:27:13.817Z,245.48
2022-12-05T19:32:17.181Z,222.48
2022-12-05T19:37:21.908Z,186.70
2022-12-05T19:42:25.341Z,197.90
2022-12-05T19:47:28.952Z,202.13
2022-12-05T19:52:33.790Z,192.10
2022-12-05T19:57:37.869Z,145.73
2022-12-05T20:02:42.925Z,174.07
2022-12-05T20:07:50.400Z,125.63
2022-12-05T20:12:53.855Z,167.27
2022-12-05T20:17:57.303Z,134.77
2022-12-05T20:23:01.998Z,130.00
2022-12-05T20:28:05.996Z,132.70
2022-12-05T20:33:09.752Z,118.95
2022-12-05T20:38:15.314Z,132.48
2022-12-05T20:43:18.761Z,130.77
2022-12-05T20:48:25.983Z,139.25
2022-12-05T20:53:34.178Z,126.75
2022-12-05T20:58:38.104Z,132.45
2022-12-05T21:03:42.914Z,139.27
2022-12-05T21:08:47.699Z,315.52
2022-12-05T21:13:51.338Z,234.43
2022-12-05T21:18:56.170Z,236.52
2022-12-05T21:24:02.797Z,224.10
2022-12-05T21:29:08.536Z,258.38
2022-12-05T21:34:16.301Z,265.52
2022-12-05T21:39:21.052Z,301.65
2022-12-05T21:44:24.428Z,326.00
2022-12-05T21:49:27.927Z,302.83
2022-12-05T21:54:32.638Z,291.95
2022-12-05T21:59:36.049Z,317.27
2022-12-05T22:04:39.420Z,253.50
2022-12-05T22:09:44.203Z,281.55
2022-12-05T22:14:47.852Z,286.98
2022-12-05T22:19:51.250Z,334.92
2022-12-05T22:24:58.720Z,284.98
2022-12-05T22:30:02.468Z,256.30
2022-12-05T22:35:06.308Z,236.32
2022-12-05T22:40:11.899Z,235.48
2022-12-05T22:45:15.364Z,181.43
2022-12-05T22:50:18.868Z,168.32
2022-12-05T22:55:23.558Z,168.13
2022-12-05T23:00:26.900Z,189.60
2022-12-05T23:05:30.303Z,170.30
2022-12-05T23:10:35.312Z,156.57
2022-12-05T23:15:38.875Z,198.48
2022-12-05T23:20:42.690Z,423.38
2022-12-05T23:25:47.436Z,222.13
2022-12-05T23:30:50.788Z,200.38
2022-12-05T23:35:54.781Z,209.40
2022-12-05T23:41:04.954Z,325.30
2022-12-05T23:46:08.676Z,248.07
2022-12-05T23:51:14.727Z,262.55
2022-12-05T23:56:21.385Z,190.30
